Time;durP1;ratioP1;P1;durP2;ratioP2;P2;SDS_P1;SDS_P2;PMS_P1;PMS_P2;Temp;Humidity;BMP_temperature;BMP_pressure;BME280_temperature;BME280_humidity;BME280_pressure;Samples;Min_cycle;Max_cycle;Signal;HPM_P1;HPM_P2
2023/05/30 00:01:51;;;;;;;;;;;9.50;59.60;;;;;;4083688;29;19994;-87
2023/05/30 00:04:11;;;;;;;;;;;9.50;59.60;;;;;;4074182;29;19938;-87
2023/05/30 00:06:32;;;;;;;;;;;9.40;59.80;;;;;;4086583;29;20286;-87
2023/05/30 00:08:53;;;;;;;;;;;9.50;59.90;;;;;;4074240;29;19919;-87
2023/05/30 00:11:14;;;;;;;;;;;9.40;59.70;;;;;;4074243;29;19919;-85
2023/05/30 00:13:35;;;;;;;;;;;9.40;59.70;;;;;;4085247;29;19914;-89
2023/05/30 00:15:57;;;;;;;;;;;9.40;59.70;;;;;;4086891;29;19919;-88
2023/05/30 00:18:18;;;;;;;;;;;9.40;60.00;;;;;;4083222;29;19919;-88
2023/05/30 00:20:40;;;;;;;;;;;9.40;59.80;;;;;;4067738;29;19915;-87
2023/05/30 00:23:00;;;;;;;;;;;9.50;60.10;;;;;;4084518;29;19923;-86
2023/05/30 00:25:21;;;;;;;;;;;9.40;60.40;;;;;;4085274;29;19922;-88
2023/05/30 00:27:42;;;;;;;;;;;9.40;60.10;;;;;;4068287;29;19919;-88
2023/05/30 00:30:03;;;;;;;;;;;9.40;60.30;;;;;;4071147;29;19976;-85
2023/05/30 00:32:24;;;;;;;;;;;9.40;60.30;;;;;;4083718;29;19925;-85
2023/05/30 00:34:45;;;;;;;;;;;9.40;60.10;;;;;;4080253;29;19915;-87
2023/05/30 00:37:06;;;;;;;;;;;9.50;60.50;;;;;;4077381;29;19925;-86
2023/05/30 00:39:28;;;;;;;;;;;9.50;60.90;;;;;;4069217;29;20010;-88
2023/05/30 00:41:49;;;;;;;;;;;9.50;60.80;;;;;;4078061;29;19918;-88
2023/05/30 00:44:10;;;;;;;;;;;9.50;61.10;;;;;;4072623;29;20453;-88
2023/05/30 00:46:31;;;;;;;;;;;9.60;61.60;;;;;;4083095;29;20010;-87
2023/05/30 00:48:52;;;;;;;;;;;9.60;61.80;;;;;;4084710;29;19925;-85
2023/05/30 00:51:13;;;;;;;;;;;9.60;62.90;;;;;;4086178;29;19925;-87
2023/05/30 00:53:34;;;;;;;;;;;9.60;63.70;;;;;;4070256;29;19919;-86
2023/05/30 00:55:55;;;;;;;;;;;9.60;64.10;;;;;;4080436;29;19970;-86
2023/05/30 00:58:19;;;;;;;;;;;9.70;64.20;;;;;;4082807;29;20271;-86
2023/05/30 01:00:40;;;;;;;;;;;9.60;64.90;;;;;;4085661;29;19929;-88
2023/05/30 01:03:00;;;;;;;;;;;9.70;64.30;;;;;;4083670;29;19974;-85
2023/05/30 01:05:24;;;;;;;;;;;9.60;64.30;;;;;;4083765;29;19922;-85
2023/05/30 01:07:45;;;;;;;;;;;9.70;64.30;;;;;;4081524;29;19945;-85
2023/05/30 01:10:06;;;;;;;;;;;9.80;64.60;;;;;;4073446;29;20411;-87
2023/05/30 01:12:47;;;;;;;;;;;9.70;64.70;;;;;;4084815;29;19927;-86
2023/05/30 01:15:13;;;;;;;;;;;9.70;64.60;;;;;;4082528;29;19946;-88
2023/05/30 01:17:38;;;;;;;;;;;9.70;65.50;;;;;;4068804;29;19926;-86
2023/05/30 01:19:59;;;;;;;;;;;9.80;66.20;;;;;;4072874;29;20441;-88
2023/05/30 01:22:38;;;;;;;;;;;9.90;64.90;;;;;;4083773;29;20002;-86
2023/05/30 01:25:18;;;;;;;;;;;9.80;64.60;;;;;;4084475;29;19990;-86
2023/05/30 01:27:57;;;;;;;;;;;9.80;64.50;;;;;;4067994;29;19954;-88
2023/05/30 01:30:20;;;;;;;;;;;9.80;64.50;;;;;;4081703;29;19929;-86
2023/05/30 01:32:41;;;;;;;;;;;9.80;64.60;;;;;;4083237;29;19915;-88
2023/05/30 01:35:03;;;;;;;;;;;9.90;64.90;;;;;;4084909;29;19973;-87
2023/05/30 01:37:23;;;;;;;;;;;9.90;64.70;;;;;;4082223;29;19926;-87
2023/05/30 01:39:44;;;;;;;;;;;9.90;64.70;;;;;;4086252;29;19918;-88
2023/05/30 01:42:27;;;;;;;;;;;9.90;64.50;;;;;;4080054;29;19922;-85
2023/05/30 01:44:58;;;;;;;;;;;9.90;64.10;;;;;;4070631;29;19930;-87
2023/05/30 01:47:28;;;;;;;;;;;9.90;64.00;;;;;;4083336;29;19919;-87
2023/05/30 01:49:54;;;;;;;;;;;9.90;64.20;;;;;;4082523;29;19923;-88
2023/05/30 01:52:17;;;;;;;;;;;10.00;64.70;;;;;;4082807;29;19915;-88
2023/05/30 01:54:40;;;;;;;;;;;10.10;65.70;;;;;;4069958;29;20026;-87
2023/05/30 01:57:05;;;;;;;;;;;10.00;64.60;;;;;;4080503;29;19919;-86
2023/05/30 01:59:26;;;;;;;;;;;10.10;64.50;;;;;;4078282;29;19925;-87
2023/05/30 02:01:47;;;;;;;;;;;10.10;64.40;;;;;;4082114;29;19919;-86
2023/05/30 02:04:09;;;;;;;;;;;10.10;64.30;;;;;;4083140;29;19982;-87
2023/05/30 02:06:29;;;;;;;;;;;10.30;64.40;;;;;;4079825;29;19915;-89
2023/05/30 02:08:50;;;;;;;;;;;10.10;64.20;;;;;;4081264;29;19923;-86
2023/05/30 02:11:11;;;;;;;;;;;10.10;64.20;;;;;;4069996;29;20008;-87
2023/05/30 02:13:32;;;;;;;;;;;10.20;64.30;;;;;;4079764;29;19919;-89
2023/05/30 02:15:53;;;;;;;;;;;10.20;64.20;;;;;;4082861;29;19919;-87
2023/05/30 02:18:14;;;;;;;;;;;10.10;64.00;;;;;;4083309;29;19925;-88
2023/05/30 02:20:36;;;;;;;;;;;10.20;63.90;;;;;;4082876;29;20311;-86
2023/05/30 02:22:56;;;;;;;;;;;10.20;63.80;;;;;;4081530;29;19921;-89
2023/05/30 02:25:19;;;;;;;;;;;10.20;63.70;;;;;;4082040;29;19915;-87
2023/05/30 02:27:40;;;;;;;;;;;10.20;63.60;;;;;;4081908;29;19929;-88
2023/05/30 02:30:01;;;;;;;;;;;10.20;63.70;;;;;;4080578;29;20334;-88
2023/05/30 02:32:22;;;;;;;;;;;10.20;63.50;;;;;;4080674;29;19954;-86
2023/05/30 02:34:42;;;;;;;;;;;10.30;63.70;;;;;;4080260;29;19919;-86
2023/05/30 02:37:04;;;;;;;;;;;10.30;63.70;;;;;;4077861;29;19987;-88
2023/05/30 02:39:25;;;;;;;;;;;10.30;63.60;;;;;;4080439;29;19915;-85
2023/05/30 02:41:45;;;;;;;;;;;10.30;64.20;;;;;;4081209;29;19915;-88
2023/05/30 02:44:06;;;;;;;;;;;10.30;64.10;;;;;;4078373;29;19954;-88
2023/05/30 02:46:27;;;;;;;;;;;10.30;64.50;;;;;;4080401;29;19918;-88
2023/05/30 02:48:48;;;;;;;;;;;10.30;64.50;;;;;;4081429;29;19929;-86
2023/05/30 02:51:10;;;;;;;;;;;10.30;64.30;;;;;;4084293;29;20374;-88
2023/05/30 02:53:31;;;;;;;;;;;10.40;64.40;;;;;;4079328;29;20012;-87
2023/05/30 02:55:51;;;;;;;;;;;10.30;64.50;;;;;;4068599;29;19919;-87
2023/05/30 02:58:13;;;;;;;;;;;10.40;64.40;;;;;;4081410;29;19922;-89
2023/05/30 03:00:34;;;;;;;;;;;10.40;64.10;;;;;;4064119;29;19939;-87
2023/05/30 03:02:55;;;;;;;;;;;10.40;64.30;;;;;;4076441;29;19962;-88
2023/05/30 03:05:17;;;;;;;;;;;10.40;64.60;;;;;;4078960;29;20013;-87
2023/05/30 03:07:38;;;;;;;;;;;10.30;64.80;;;;;;4082894;29;19954;-87
2023/05/30 03:09:59;;;;;;;;;;;10.40;64.90;;;;;;4083770;29;20025;-88
2023/05/30 03:12:22;;;;;;;;;;;10.40;65.20;;;;;;4083501;29;19923;-86
2023/05/30 03:14:43;;;;;;;;;;;10.40;65.30;;;;;;4080782;29;20029;-87
2023/05/30 03:17:05;;;;;;;;;;;10.50;65.50;;;;;;4083374;29;19946;-88
2023/05/30 03:19:25;;;;;;;;;;;10.40;65.90;;;;;;4083427;29;19918;-86
2023/05/30 03:21:49;;;;;;;;;;;10.40;65.10;;;;;;4082307;29;20375;-86
2023/05/30 03:24:12;;;;;;;;;;;10.40;65.30;;;;;;4072512;29;19927;-89
2023/05/30 03:26:32;;;;;;;;;;;10.50;65.00;;;;;;4081907;29;19919;-86
2023/05/30 03:28:53;;;;;;;;;;;10.40;65.10;;;;;;4070481;29;19968;-86
2023/05/30 03:31:14;;;;;;;;;;;10.50;65.60;;;;;;4069541;29;19959;-89
2023/05/30 03:33:35;;;;;;;;;;;10.60;65.80;;;;;;4085255;29;19915;-87
2023/05/30 03:35:56;;;;;;;;;;;10.60;66.10;;;;;;4068955;29;20317;-86
2023/05/30 03:38:17;;;;;;;;;;;10.50;66.90;;;;;;4081966;29;19954;-88
2023/05/30 03:40:38;;;;;;;;;;;10.60;67.00;;;;;;4090295;29;20005;-88
2023/05/30 03:42:59;;;;;;;;;;;10.50;66.90;;;;;;4078515;29;20549;-84
2023/05/30 03:45:20;;;;;;;;;;;10.60;67.10;;;;;;4082055;29;19974;-87
2023/05/30 03:47:41;;;;;;;;;;;10.50;66.70;;;;;;4083365;29;20222;-87
2023/05/30 03:50:02;;;;;;;;;;;10.50;66.90;;;;;;4084146;29;19926;-85
2023/05/30 03:52:23;;;;;;;;;;;10.50;66.40;;;;;;4085727;29;20295;-85
2023/05/30 03:54:44;;;;;;;;;;;10.60;66.60;;;;;;4086412;29;19922;-88
2023/05/30 03:57:06;;;;;;;;;;;10.60;66.50;;;;;;4085276;29;19918;-86
2023/05/30 03:59:26;;;;;;;;;;;10.60;66.30;;;;;;4086640;29;19915;-87
2023/05/30 04:01:47;;;;;;;;;;;10.60;66.20;;;;;;4070903;29;20592;-87
2023/05/30 04:04:08;;;;;;;;;;;10.60;66.00;;;;;;4074946;29;19926;-89
2023/05/30 04:06:29;;;;;;;;;;;10.60;66.00;;;;;;4083442;29;19915;-87
2023/05/30 04:08:50;;;;;;;;;;;10.70;66.70;;;;;;4087309;29;19959;-89
2023/05/30 04:11:11;;;;;;;;;;;10.70;66.70;;;;;;4091101;29;19915;-88
2023/05/30 04:13:32;;;;;;;;;;;10.70;66.80;;;;;;4084844;29;19915;-88
2023/05/30 04:15:53;;;;;;;;;;;10.70;66.70;;;;;;4085539;29;19923;-87
2023/05/30 04:18:14;;;;;;;;;;;10.70;66.40;;;;;;4072769;29;19922;-85
2023/05/30 04:20:35;;;;;;;;;;;10.80;66.40;;;;;;4086192;29;19918;-88
2023/05/30 04:22:56;;;;;;;;;;;10.80;66.30;;;;;;4084859;29;19923;-86
2023/05/30 04:25:17;;;;;;;;;;;10.80;66.40;;;;;;4088802;29;19921;-87
2023/05/30 04:27:39;;;;;;;;;;;10.80;66.70;;;;;;4082178;29;20028;-85
2023/05/30 04:30:03;;;;;;;;;;;10.90;66.50;;;;;;4082040;29;20212;-87
2023/05/30 04:32:23;;;;;;;;;;;10.80;66.00;;;;;;4083305;29;19949;-89
2023/05/30 04:34:48;;;;;;;;;;;10.90;66.60;;;;;;4086170;29;20009;-86
2023/05/30 04:37:10;;;;;;;;;;;10.90;66.70;;;;;;4087686;29;19914;-85
2023/05/30 04:39:31;;;;;;;;;;;10.90;66.50;;;;;;4081592;29;19922;-86
2023/05/30 04:41:54;;;;;;;;;;;10.90;66.20;;;;;;4070340;29;19919;-85
2023/05/30 04:44:17;;;;;;;;;;;10.90;66.30;;;;;;4083710;29;19914;-87
2023/05/30 04:46:37;;;;;;;;;;;11.00;66.10;;;;;;4069790;29;19926;-86
2023/05/30 04:49:00;;;;;;;;;;;10.90;66.10;;;;;;4083416;29;19970;-87
2023/05/30 04:51:21;;;;;;;;;;;10.90;66.20;;;;;;4070558;29;19934;-87
2023/05/30 04:53:42;;;;;;;;;;;11.00;67.10;;;;;;4082320;29;19915;-86
2023/05/30 04:56:03;;;;;;;;;;;11.00;66.00;;;;;;4085433;29;19966;-86
2023/05/30 04:58:24;;;;;;;;;;;11.00;66.50;;;;;;4082200;29;19919;-85
2023/05/30 05:00:46;;;;;;;;;;;11.00;66.60;;;;;;4082726;29;19962;-85
2023/05/30 05:03:07;;;;;;;;;;;11.00;66.30;;;;;;4082709;29;19915;-84
2023/05/30 05:05:28;;;;;;;;;;;11.10;66.80;;;;;;4079964;29;20425;-86
2023/05/30 05:07:49;;;;;;;;;;;11.00;66.50;;;;;;4083292;29;19978;-85
2023/05/30 05:10:10;;;;;;;;;;;11.00;66.10;;;;;;4083046;29;19922;-86
2023/05/30 05:12:30;;;;;;;;;;;11.10;66.10;;;;;;4083653;29;20010;-87
2023/05/30 05:14:53;;;;;;;;;;;11.20;65.80;;;;;;4083737;29;19982;-86
2023/05/30 05:17:14;;;;;;;;;;;11.30;66.10;;;;;;4086790;29;19915;-87
2023/05/30 05:19:35;;;;;;;;;;;11.20;66.80;;;;;;4086384;29;20131;-86
2023/05/30 05:21:56;;;;;;;;;;;11.30;66.20;;;;;;4085782;29;19938;-86
2023/05/30 05:24:16;;;;;;;;;;;11.30;65.80;;;;;;4071553;29;19912;-86
2023/05/30 05:26:37;;;;;;;;;;;11.20;65.80;;;;;;4085842;29;19922;-86
2023/05/30 05:28:58;;;;;;;;;;;11.30;65.80;;;;;;4088278;29;19914;-86
2023/05/30 05:31:19;;;;;;;;;;;11.40;65.70;;;;;;4085500;29;20331;-86
2023/05/30 05:33:39;;;;;;;;;;;11.30;65.80;;;;;;4087784;29;19911;-84
2023/05/30 05:36:02;;;;;;;;;;;11.30;65.70;;;;;;4089007;29;20454;-86
2023/05/30 05:38:23;;;;;;;;;;;11.50;66.00;;;;;;4092974;28;19899;-87
2023/05/30 05:40:43;;;;;;;;;;;11.40;65.80;;;;;;4085937;28;19965;-86
2023/05/30 05:43:05;;;;;;;;;;;11.50;65.70;;;;;;4067262;29;19983;-85
2023/05/30 05:45:26;;;;;;;;;;;11.40;65.70;;;;;;4077933;29;20390;-84
2023/05/30 05:47:47;;;;;;;;;;;11.50;65.30;;;;;;4066452;29;19958;-85
2023/05/30 05:50:08;;;;;;;;;;;11.40;65.10;;;;;;4079103;29;19970;-84
2023/05/30 05:52:29;;;;;;;;;;;11.50;65.60;;;;;;4081206;29;19966;-84
2023/05/30 05:54:49;;;;;;;;;;;11.50;65.40;;;;;;4081922;29;19970;-84
2023/05/30 05:57:10;;;;;;;;;;;11.50;66.60;;;;;;4082373;29;19946;-87
2023/05/30 05:59:31;;;;;;;;;;;11.50;65.80;;;;;;4077349;29;19923;-85
2023/05/30 06:01:54;;;;;;;;;;;11.50;65.70;;;;;;4065862;29;20627;-86
2023/05/30 06:04:29;;;;;;;;;;;11.60;65.60;;;;;;4080678;29;19923;-84
2023/05/30 06:07:26;;;;;;;;;;;11.60;65.30;;;;;;4079689;29;19946;-82
2023/05/30 06:09:47;;;;;;;;;;;11.60;65.00;;;;;;4066278;29;20353;-85
2023/05/30 06:12:08;;;;;;;;;;;11.60;64.80;;;;;;4077785;29;20019;-84
2023/05/30 06:14:29;;;;;;;;;;;11.60;64.90;;;;;;4064895;29;19926;-85
2023/05/30 06:16:50;;;;;;;;;;;11.60;65.10;;;;;;4077589;29;20454;-85
2023/05/30 06:19:11;;;;;;;;;;;11.60;65.30;;;;;;4077627;29;20319;-85
2023/05/30 06:21:32;;;;;;;;;;;11.60;65.50;;;;;;4081744;29;19957;-86
2023/05/30 06:23:53;;;;;;;;;;;11.60;65.30;;;;;;4079726;29;19915;-85
2023/05/30 06:26:14;;;;;;;;;;;11.60;65.20;;;;;;4080820;29;20005;-84
2023/05/30 06:28:35;;;;;;;;;;;11.70;65.10;;;;;;4064953;29;20365;-85
2023/05/30 06:30:56;;;;;;;;;;;11.70;65.20;;;;;;4082192;29;19966;-84
2023/05/30 06:45:29;;;;;;;;;;;11.60;65.00;;;;;;3991927;29;19925;-85
2023/05/30 06:47:50;;;;;;;;;;;11.80;65.20;;;;;;3989884;29;19976;-86
2023/05/30 06:50:11;;;;;;;;;;;11.80;65.30;;;;;;3981831;29;20722;-86
2023/05/30 06:52:35;;;;;;;;;;;11.80;65.40;;;;;;3996024;29;19947;-85
2023/05/30 06:54:56;;;;;;;;;;;11.80;65.00;;;;;;3995271;29;20350;-87
2023/05/30 06:57:16;;;;;;;;;;;11.80;64.90;;;;;;3992653;29;19921;-85
2023/05/30 06:59:37;;;;;;;;;;;11.80;64.90;;;;;;3992552;29;19957;-86
2023/05/30 07:01:58;;;;;;;;;;;11.90;65.10;;;;;;3980645;29;19925;-86
2023/05/30 07:04:19;;;;;;;;;;;12.10;65.10;;;;;;3992597;29;19921;-87
2023/05/30 07:06:40;;;;;;;;;;;12.00;64.90;;;;;;3992287;29;20011;-87
2023/05/30 07:09:02;;;;;;;;;;;12.00;65.00;;;;;;3982224;29;19929;-87
2023/05/30 07:11:23;;;;;;;;;;;12.00;65.10;;;;;;3994346;29;19988;-86
2023/05/30 07:13:44;;;;;;;;;;;12.10;65.10;;;;;;3991574;29;20009;-86
2023/05/30 07:16:05;;;;;;;;;;;12.10;65.30;;;;;;4053765;29;19919;-86
2023/05/30 07:18:26;;;;;;;;;;;12.10;65.00;;;;;;4087855;29;19922;-86
2023/05/30 07:20:47;;;;;;;;;;;12.20;64.90;;;;;;4085340;29;19921;-85
2023/05/30 07:23:07;;;;;;;;;;;12.20;65.20;;;;;;4084848;29;19918;-87
2023/05/30 07:25:28;;;;;;;;;;;12.20;65.20;;;;;;4087653;29;19921;-85
2023/05/30 07:27:49;;;;;;;;;;;12.30;64.90;;;;;;4088114;29;19918;-86
2023/05/30 07:30:11;;;;;;;;;;;12.30;65.10;;;;;;4088726;29;19941;-87
2023/05/30 07:32:32;;;;;;;;;;;12.40;64.80;;;;;;4073874;29;19935;-86
2023/05/30 07:34:53;;;;;;;;;;;12.40;64.70;;;;;;4085879;29;19918;-85
2023/05/30 07:37:14;;;;;;;;;;;12.50;64.70;;;;;;4086099;29;20346;-85
2023/05/30 07:39:35;;;;;;;;;;;12.60;65.10;;;;;;4087753;29;19918;-86
2023/05/30 07:41:56;;;;;;;;;;;12.60;64.50;;;;;;4070963;29;19919;-86
2023/05/30 07:44:17;;;;;;;;;;;12.70;64.20;;;;;;4072206;29;20010;-86
2023/05/30 07:46:37;;;;;;;;;;;12.80;63.90;;;;;;4092987;29;19962;-89
2023/05/30 07:49:01;;;;;;;;;;;12.90;64.10;;;;;;4069779;29;19934;-85
2023/05/30 07:51:22;;;;;;;;;;;12.90;63.70;;;;;;4067193;29;19987;-85
2023/05/30 07:53:43;;;;;;;;;;;13.00;63.80;;;;;;4082703;29;19915;-86
2023/05/30 07:56:04;;;;;;;;;;;13.10;63.60;;;;;;4083584;29;20313;-84
2023/05/30 07:58:25;;;;;;;;;;;13.10;63.20;;;;;;4067873;29;19915;-84
2023/05/30 08:00:46;;;;;;;;;;;13.20;63.10;;;;;;4084335;29;19919;-85
2023/05/30 08:03:07;;;;;;;;;;;13.20;63.10;;;;;;4067683;29;19956;-84
2023/05/30 08:05:28;;;;;;;;;;;13.30;63.10;;;;;;4088467;29;19910;-86
2023/05/30 08:07:49;;;;;;;;;;;13.40;61.90;;;;;;4074042;29;19915;-85
2023/05/30 08:10:10;;;;;;;;;;;13.40;61.10;;;;;;4084438;29;19926;-86
2023/05/30 08:12:31;;;;;;;;;;;13.40;59.40;;;;;;4072778;29;19915;-85
2023/05/30 08:14:51;;;;;;;;;;;13.40;60.00;;;;;;4072865;29;20028;-87
2023/05/30 08:17:15;;;;;;;;;;;13.60;60.50;;;;;;4083944;29;19947;-84
2023/05/30 08:19:35;;;;;;;;;;;13.50;60.10;;;;;;4083524;29;19915;-86
2023/05/30 08:21:56;;;;;;;;;;;13.50;60.30;;;;;;4087170;29;19923;-86
2023/05/30 08:24:17;;;;;;;;;;;13.60;60.50;;;;;;4074141;29;19994;-87
2023/05/30 08:26:39;;;;;;;;;;;13.70;60.60;;;;;;4068070;29;20276;-85
2023/05/30 08:29:03;;;;;;;;;;;13.70;60.60;;;;;;4084025;29;19924;-85
2023/05/30 08:31:24;;;;;;;;;;;13.70;60.70;;;;;;4087548;29;19918;-86
2023/05/30 08:33:45;;;;;;;;;;;13.80;60.80;;;;;;4075131;29;19962;-86
2023/05/30 08:36:06;;;;;;;;;;;13.80;60.60;;;;;;4082570;29;20009;-86
2023/05/30 08:38:27;;;;;;;;;;;13.90;60.50;;;;;;4086966;29;19923;-86
2023/05/30 08:40:51;;;;;;;;;;;13.90;60.50;;;;;;4072361;29;19914;-86
2023/05/30 08:43:12;;;;;;;;;;;14.00;60.50;;;;;;4079502;29;19915;-86
2023/05/30 08:45:33;;;;;;;;;;;14.00;60.30;;;;;;4085456;29;19911;-85
2023/05/30 08:47:56;;;;;;;;;;;14.10;60.30;;;;;;4071362;29;19933;-86
2023/05/30 08:50:20;;;;;;;;;;;14.10;60.10;;;;;;4069434;29;19915;-87
2023/05/30 08:52:41;;;;;;;;;;;14.20;60.10;;;;;;4074395;29;20147;-87
2023/05/30 08:55:07;;;;;;;;;;;14.20;60.10;;;;;;4090036;29;19963;-86
2023/05/30 08:57:35;;;;;;;;;;;14.30;60.30;;;;;;4072061;29;19959;-84
2023/05/30 08:59:57;;;;;;;;;;;14.30;60.40;;;;;;4075380;29;19939;-86
2023/05/30 09:02:20;;;;;;;;;;;14.40;60.50;;;;;;4075652;29;19915;-86
2023/05/30 09:04:42;;;;;;;;;;;14.60;60.60;;;;;;4073220;29;20006;-86
2023/05/30 09:07:03;;;;;;;;;;;14.60;60.50;;;;;;4072000;29;19912;-87
2023/05/30 09:09:24;;;;;;;;;;;14.70;60.30;;;;;;4090082;29;20086;-87
2023/05/30 09:11:45;;;;;;;;;;;14.80;60.40;;;;;;4088935;29;20418;-86
2023/05/30 09:14:06;;;;;;;;;;;14.80;59.90;;;;;;4089627;29;19962;-84
2023/05/30 09:16:27;;;;;;;;;;;14.90;59.80;;;;;;4087106;29;19915;-87
2023/05/30 09:18:48;;;;;;;;;;;15.00;59.70;;;;;;4074853;29;20051;-87
2023/05/30 09:21:09;;;;;;;;;;;15.10;59.60;;;;;;4071990;29;19929;-86
2023/05/30 09:23:30;;;;;;;;;;;15.20;59.60;;;;;;4084308;29;20210;-87
2023/05/30 09:25:51;;;;;;;;;;;15.40;59.60;;;;;;4070635;29;19915;-86
2023/05/30 09:28:13;;;;;;;;;;;15.40;59.40;;;;;;4085660;29;19919;-87
2023/05/30 09:30:34;;;;;;;;;;;15.40;59.20;;;;;;4071700;29;20018;-86
2023/05/30 09:33:02;;;;;;;;;;;15.50;57.60;;;;;;4069761;29;19916;-84
2023/05/30 09:35:24;;;;;;;;;;;15.50;57.50;;;;;;4073275;29;19915;-87
2023/05/30 09:37:45;;;;;;;;;;;15.60;57.60;;;;;;4080921;29;19930;-85
2023/05/30 09:40:07;;;;;;;;;;;15.60;57.70;;;;;;4084240;29;20318;-85
2023/05/30 09:42:37;;;;;;;;;;;15.70;56.20;;;;;;4085947;29;19946;-87
2023/05/30 09:45:03;;;;;;;;;;;15.70;56.00;;;;;;4083177;29;19981;-86
2023/05/30 09:47:24;;;;;;;;;;;15.80;56.80;;;;;;4069158;29;19919;-88
2023/05/30 09:49:44;;;;;;;;;;;16.00;57.00;;;;;;4084486;29;19962;-87
2023/05/30 09:52:05;;;;;;;;;;;15.90;57.10;;;;;;4086616;29;19911;-86
2023/05/30 09:54:27;;;;;;;;;;;15.90;57.20;;;;;;4076135;29;19963;-87
2023/05/30 09:56:48;;;;;;;;;;;16.00;57.50;;;;;;4081547;29;20535;-89
2023/05/30 09:59:10;;;;;;;;;;;15.90;55.60;;;;;;4084467;29;20129;-85
2023/05/30 10:01:37;;;;;;;;;;;15.90;55.90;;;;;;4084051;29;19967;-87
2023/05/30 10:03:58;;;;;;;;;;;16.00;56.20;;;;;;4071794;29;19915;-85
2023/05/30 10:06:20;;;;;;;;;;;16.00;54.40;;;;;;4084733;29;19915;-86
2023/05/30 10:08:45;;;;;;;;;;;15.90;54.60;;;;;;4081873;29;20009;-87
2023/05/30 10:11:07;;;;;;;;;;;15.90;55.40;;;;;;4084907;29;19985;-86
2023/05/30 10:13:28;;;;;;;;;;;16.00;55.80;;;;;;4086475;29;19922;-85
2023/05/30 10:15:48;;;;;;;;;;;16.00;56.10;;;;;;4073345;29;19922;-86
2023/05/30 10:18:13;;;;;;;;;;;16.10;56.10;;;;;;4070233;29;20469;-87
2023/05/30 10:20:36;;;;;;;;;;;16.10;56.10;;;;;;4088836;29;19921;-86
2023/05/30 10:23:06;;;;;;;;;;;16.10;56.40;;;;;;4099633;28;19978;-88
2023/05/30 10:25:28;;;;;;;;;;;16.20;56.50;;;;;;4088104;28;19926;-89
2023/05/30 10:27:51;;;;;;;;;;;16.30;56.60;;;;;;4101924;28;19907;-89
2023/05/30 10:30:12;;;;;;;;;;;16.40;56.60;;;;;;4098931;28;19922;-89
2023/05/30 10:32:36;;;;;;;;;;;16.40;55.40;;;;;;4103393;28;19974;-90
2023/05/30 10:35:04;;;;;;;;;;;16.50;53.00;;;;;;4100677;28;19907;-87
2023/05/30 10:37:25;;;;;;;;;;;16.60;53.80;;;;;;4076601;29;19939;-85
2023/05/30 10:39:48;;;;;;;;;;;16.70;54.50;;;;;;4083896;29;19906;-86
2023/05/30 10:42:16;;;;;;;;;;;16.80;53.50;;;;;;4081905;29;19911;-84
2023/05/30 10:44:46;;;;;;;;;;;16.90;53.60;;;;;;4082783;29;20290;-86
2023/05/30 10:47:18;;;;;;;;;;;16.90;53.80;;;;;;4079264;29;20263;-85
2023/05/30 10:49:39;;;;;;;;;;;16.90;54.10;;;;;;4084137;29;20437;-85
2023/05/30 10:52:07;;;;;;;;;;;16.90;52.00;;;;;;4070329;29;19987;-86
2023/05/30 10:54:32;;;;;;;;;;;16.90;52.70;;;;;;4082945;29;19936;-86
2023/05/30 10:56:53;;;;;;;;;;;16.90;52.90;;;;;;4085380;29;19915;-85
2023/05/30 10:59:25;;;;;;;;;;;;;;;;;;;;;
2023/05/30 11:01:59;;;;;;;;;;;17.00;53.30;;;;;;4088690;29;20298;-87
2023/05/30 11:05:02;;;;;;;;;;;;;;;;;;;;;
2023/05/30 11:07:50;;;;;;;;;;;17.10;53.80;;;;;;4083719;29;19921;-87
2023/05/30 11:10:12;;;;;;;;;;;17.30;54.00;;;;;;4086807;29;19954;-85
2023/05/30 11:12:38;;;;;;;;;;;17.30;54.00;;;;;;4072200;29;19931;-86
2023/05/30 11:15:00;;;;;;;;;;;17.40;52.70;;;;;;4088217;29;19907;-86
2023/05/30 11:17:27;;;;;;;;;;;17.50;53.40;;;;;;4069799;29;19927;-87
2023/05/30 11:19:49;;;;;;;;;;;17.50;53.30;;;;;;4083272;29;20298;-86
2023/05/30 11:22:12;;;;;;;;;;;17.60;52.40;;;;;;4085037;29;20418;-86
2023/05/30 11:24:33;;;;;;;;;;;17.60;51.30;;;;;;4084852;29;19926;-85
2023/05/30 11:27:01;;;;;;;;;;;17.60;52.40;;;;;;4085923;29;19918;-87
2023/05/30 11:29:31;;;;;;;;;;;17.70;52.20;;;;;;4083740;29;19915;-87
2023/05/30 11:31:52;;;;;;;;;;;17.70;51.60;;;;;;4085846;29;19915;-88
2023/05/30 11:34:13;;;;;;;;;;;17.70;51.70;;;;;;4068462;29;19990;-85
2023/05/30 11:36:36;;;;;;;;;;;17.70;52.10;;;;;;4068485;29;20275;-86
2023/05/30 11:38:57;;;;;;;;;;;17.70;52.00;;;;;;4081003;29;20005;-86
2023/05/30 11:41:18;;;;;;;;;;;17.70;51.80;;;;;;4082483;29;19919;-85
2023/05/30 11:43:41;;;;;;;;;;;17.70;51.90;;;;;;4082278;29;19918;-85
2023/05/30 11:46:02;;;;;;;;;;;17.70;51.70;;;;;;4083005;29;20389;-89
2023/05/30 11:48:23;;;;;;;;;;;17.70;50.40;;;;;;4069592;29;19958;-86
2023/05/30 11:50:55;;;;;;;;;;;17.70;51.50;;;;;;4067403;29;19919;-85
2023/05/30 11:53:33;;;;;;;;;;;17.70;51.40;;;;;;4081469;29;20274;-87
2023/05/30 11:55:54;;;;;;;;;;;17.70;50.40;;;;;;4079061;29;19919;-87
2023/05/30 11:58:29;;;;;;;;;;;17.70;51.20;;;;;;4085588;29;19907;-87
2023/05/30 12:00:51;;;;;;;;;;;17.70;51.50;;;;;;4071795;29;19942;-85
2023/05/30 12:03:16;;;;;;;;;;;17.70;51.30;;;;;;4070379;29;21768;-86
2023/05/30 12:06:02;;;;;;;;;;;17.80;52.00;;;;;;4085167;29;19918;-85
2023/05/30 12:08:24;;;;;;;;;;;17.80;51.30;;;;;;4094214;23;19927;-86
2023/05/30 12:10:48;;;;;;;;;;;17.70;51.00;;;;;;4082646;29;20186;-85
2023/05/30 12:13:20;;;;;;;;;;;17.80;50.80;;;;;;4091127;28;20354;-85
2023/05/30 12:15:42;;;;;;;;;;;17.80;50.80;;;;;;4091436;28;19919;-85
2023/05/30 12:18:03;;;;;;;;;;;17.80;51.00;;;;;;4083225;28;19943;-85
2023/05/30 12:20:27;;;;;;;;;;;17.80;51.60;;;;;;4065810;29;19915;-87
2023/05/30 12:22:48;;;;;;;;;;;17.90;51.80;;;;;;4068573;29;19919;-86
2023/05/30 12:25:10;;;;;;;;;;;17.90;51.40;;;;;;4082793;29;19919;-86
2023/05/30 12:27:51;;;;;;;;;;;17.90;51.30;;;;;;4088724;29;20096;-89
2023/05/30 12:30:13;;;;;;;;;;;18.00;51.00;;;;;;4073094;29;19987;-86
2023/05/30 12:32:57;;;;;;;;;;;;;;;;;;;;;
2023/05/30 12:35:24;;;;;;;;;;;17.90;51.40;;;;;;4084260;29;19919;-86
2023/05/30 12:37:45;;;;;;;;;;;18.00;51.30;;;;;;4074767;29;19967;-88
2023/05/30 12:40:06;;;;;;;;;;;18.00;50.60;;;;;;4089539;29;19925;-86
2023/05/30 12:42:45;;;;;;;;;;;18.00;50.70;;;;;;4086243;29;20486;-87
2023/05/30 12:45:10;;;;;;;;;;;18.10;51.30;;;;;;4082871;29;19923;-86
2023/05/30 12:47:31;;;;;;;;;;;18.10;50.90;;;;;;4080919;29;19910;-86
2023/05/30 12:49:52;;;;;;;;;;;18.00;50.60;;;;;;4081233;29;19946;-87
2023/05/30 12:52:14;;;;;;;;;;;18.10;50.70;;;;;;4074190;29;19951;-86
2023/05/30 12:57:26;;;;;;;;;;;18.00;51.30;;;;;;4064306;29;19918;-84
2023/05/30 12:59:54;;;;;;;;;;;18.10;51.70;;;;;;4080035;29;20323;-86
2023/05/30 13:02:15;;;;;;;;;;;18.10;51.70;;;;;;4080407;29;19962;-86
2023/05/30 13:04:37;;;;;;;;;;;18.20;51.50;;;;;;4068014;29;20451;-85
2023/05/30 13:06:58;;;;;;;;;;;18.20;51.10;;;;;;4081623;29;19953;-85
2023/05/30 13:09:19;;;;;;;;;;;18.20;50.70;;;;;;4079959;29;19915;-86
2023/05/30 13:11:40;;;;;;;;;;;18.20;51.10;;;;;;4072447;29;19979;-85
2023/05/30 13:14:01;;;;;;;;;;;18.30;51.30;;;;;;4077463;29;20356;-87
2023/05/30 13:16:22;;;;;;;;;;;18.30;51.50;;;;;;4069500;29;19923;-87
2023/05/30 13:18:43;;;;;;;;;;;18.30;49.70;;;;;;4065607;29;19974;-85
2023/05/30 13:21:04;;;;;;;;;;;18.30;50.40;;;;;;4069869;29;19958;-87
2023/05/30 13:23:24;;;;;;;;;;;18.30;50.80;;;;;;4083958;29;19914;-85
2023/05/30 13:25:48;;;;;;;;;;;18.40;51.30;;;;;;4067275;29;20413;-84
2023/05/30 13:28:09;;;;;;;;;;;18.40;50.90;;;;;;4078546;29;19926;-84
2023/05/30 13:30:30;;;;;;;;;;;18.50;50.70;;;;;;4081923;29;19922;-89
2023/05/30 13:36:28;;;;;;;;;;;;;;;;;;;;;
2023/05/30 13:42:22;;;;;;;;;;;18.30;50.00;;;;;;3960772;29;20287;-85
2023/05/30 14:01:09;;;;;;;;;;;18.20;50.50;;;;;;481018;26;20197;-86
2023/05/30 14:03:36;;;;;;;;;;;18.20;49.60;;;;;;4125292;28;19957;-85
2023/05/30 14:06:08;;;;;;;;;;;;;;;;;;;;;
2023/05/30 14:11:28;;;;;;;;;;;18.10;50.70;;;;;;4111057;28;19925;-84
2023/05/30 14:14:07;;;;;;;;;;;18.10;50.30;;;;;;4093801;28;19919;-86
2023/05/30 14:16:29;;;;;;;;;;;18.10;50.60;;;;;;4103369;28;19993;-86
2023/05/30 14:18:50;;;;;;;;;;;18.10;50.40;;;;;;4093277;28;19915;-84
2023/05/30 14:21:11;;;;;;;;;;;18.20;50.40;;;;;;4108021;28;19957;-85
2023/05/30 14:23:34;;;;;;;;;;;18.20;50.40;;;;;;4105296;28;19910;-84
2023/05/30 14:25:55;;;;;;;;;;;18.20;50.30;;;;;;4089517;28;20359;-88
2023/05/30 14:28:41;;;;;;;;;;;18.20;49.60;;;;;;4110444;28;19914;-87
2023/05/30 14:31:01;;;;;;;;;;;18.20;49.60;;;;;;4113811;28;20113;-87
2023/05/30 14:33:22;;;;;;;;;;;18.20;50.10;;;;;;4092622;28;19965;-87
2023/05/30 14:35:44;;;;;;;;;;;18.20;50.50;;;;;;4106128;28;19916;-86
2023/05/30 14:38:05;;;;;;;;;;;18.20;50.00;;;;;;4092381;28;19930;-85
2023/05/30 14:40:26;;;;;;;;;;;18.20;49.00;;;;;;4107977;28;20389;-85